Aérodrome :
LOGIN :

S'inscrire | Disclaimer

   EN    FR    IT 

 










Légende :    VFR   VFR Marginal   IFR   IFR Intensif   IFR Très Intensif
Visi : 
Plafond : 
>= 8 km
>= 3000ft
5 à 8 km
1000 à 3000 ft
1500m à 5 km
500 à 1000 ft
800 à 1500m
200 à 500 ft
< 800m
< 200 ft
Symboles :   Orages  Brouillard  Fortes neiges  Fortes précipitations  Vent > 20 kt
SIGMETs :   Divers  Orages  Givrage  Turbulence  Onde Orograph.  Cendres Volcan.






- Altitude de l'aérodrome : 1558 ft
- Code IATA : IOA


LGIO - Ioannina

DERNIER METAR :
  • 221550Z AUTO 00000KT //// // ////// 07/M05 Q1027 RE//

METARs EXPIRÉS :
  • 221520Z AUTO 00000KT //// // ////// 08/M03 Q1027 RE//
  • 221450Z AUTO VRB02KT //// // ////// 10/M03 Q1027 RE//
  • 221420Z AUTO 14004KT //// // ////// 10/M04 Q1028 RE//
  • 221350Z AUTO 12004KT //// // ////// 11/M03 Q1028 RE//
  • 221320Z AUTO 13004KT //// // ////// 11/M03 Q1028 RE//

TAF TAF LGIO
Valide du 22 à 15h jusqu'au 23 à 00h UTC


221400Z 2215/2224 VRB03KT CAVOK



MET'MAP, la Météo Aéronautique d'un coup d'oeil ! - Copyright ORBIFLY Décembre 2007 - Disclaimer

ORBIFLY MET'MAP TEAM :

Programmation & Développement : Alexandra Zaïnal
Sur une idée originale de : Baudouin d'Aumeries
Assistance à la programmation : Marc-Olivier Méhu
Soutien technique & logistique : Manuel Goepfert

Contact : metmap@orbifly.com




SOURCES & CREDITS :

   NOAA